createdAt,value
2018-05-10T00:02:04.082Z,11.43
2018-05-10T00:04:32.280Z,8.87
2018-05-10T00:07:00.655Z,8.47
2018-05-10T00:09:28.917Z,9.13
2018-05-10T00:11:57.110Z,8.80
2018-05-10T00:14:25.594Z,8.80
2018-05-10T00:16:54.688Z,8.80
2018-05-10T00:19:22.940Z,9.50
2018-05-10T00:21:51.187Z,11.67
2018-05-10T00:24:19.596Z,7.13
2018-05-10T00:26:47.776Z,11.80
2018-05-10T00:29:16.490Z,6.07
2018-05-10T00:31:45.304Z,9.50
2018-05-10T00:34:13.599Z,11.83
2018-05-10T00:36:42.670Z,9.07
2018-05-10T00:39:10.897Z,11.67
2018-05-10T00:41:39.210Z,7.87
2018-05-10T00:44:07.481Z,10.77
2018-05-10T00:46:35.733Z,7.70
2018-05-10T00:49:03.944Z,10.50
2018-05-10T00:51:32.141Z,7.30
2018-05-10T00:54:00.367Z,6.20
2018-05-10T00:56:28.640Z,7.73
2018-05-10T00:58:56.944Z,10.63
2018-05-10T01:01:25.148Z,6.97
2018-05-10T01:03:53.340Z,9.77
2018-05-10T01:06:22.392Z,9.30
2018-05-10T01:08:50.608Z,10.57
2018-05-10T01:11:19.576Z,7.50
2018-05-10T01:13:48.572Z,8.80
2018-05-10T01:16:16.780Z,9.23
2018-05-10T01:18:45.792Z,8.00
2018-05-10T01:21:21.628Z,11.73
2018-05-10T01:23:50.936Z,7.00
2018-05-10T01:26:19.972Z,12.73
2018-05-10T01:28:48.226Z,7.57
2018-05-10T01:31:16.454Z,10.30
2018-05-10T01:33:44.726Z,10.87
2018-05-10T01:36:15.657Z,6.83
2018-05-10T01:38:43.907Z,12.70
2018-05-10T01:41:12.147Z,9.57
2018-05-10T01:43:41.244Z,11.77
2018-05-10T01:46:09.456Z,13.83
2018-05-10T01:48:44.291Z,8.57
2018-05-10T01:51:12.533Z,12.97
2018-05-10T01:53:40.763Z,10.17
2018-05-10T01:56:09.263Z,9.63
2018-05-10T01:58:38.443Z,10.37
2018-05-10T02:01:06.779Z,11.37
2018-05-10T02:03:35.779Z,10.80
2018-05-10T02:06:04.954Z,8.00
2018-05-10T02:08:33.763Z,10.03
2018-05-10T02:11:02.055Z,11.57
2018-05-10T02:13:31.094Z,11.97
2018-05-10T02:15:59.356Z,10.10
2018-05-10T02:18:27.570Z,10.67
2018-05-10T02:20:56.831Z,11.53
2018-05-10T02:23:25.083Z,10.53
2018-05-10T02:25:54.101Z,14.20
2018-05-10T02:28:22.509Z,15.33
2018-05-10T02:30:50.881Z,12.80
2018-05-10T02:33:19.110Z,9.07
2018-05-10T02:35:47.358Z,10.43
2018-05-10T02:38:16.509Z,9.10
2018-05-10T02:40:44.834Z,8.93
2018-05-10T02:43:13.033Z,9.23
2018-05-10T02:45:42.141Z,8.63
2018-05-10T02:48:12.020Z,10.10
2018-05-10T02:50:40.267Z,12.47
2018-05-10T02:53:08.443Z,9.73
2018-05-10T02:55:36.807Z,11.43
2018-05-10T02:58:05.010Z,11.87
2018-05-10T03:00:33.406Z,13.27
2018-05-10T03:03:02.522Z,8.23
2018-05-10T03:05:31.620Z,11.33
2018-05-10T03:07:59.967Z,9.60
2018-05-10T03:10:28.271Z,10.47
2018-05-10T03:12:56.510Z,12.20
2018-05-10T03:15:24.725Z,12.87
2018-05-10T03:17:53.096Z,15.20
2018-05-10T03:20:21.465Z,13.43
2018-05-10T03:22:49.921Z,12.20
2018-05-10T03:25:18.195Z,10.40
2018-05-10T03:27:46.547Z,11.13
2018-05-10T03:30:14.757Z,15.93
2018-05-10T03:32:42.981Z,13.00
2018-05-10T03:35:11.193Z,13.87
2018-05-10T03:37:40.177Z,12.40
2018-05-10T03:40:08.395Z,15.00
2018-05-10T03:42:36.617Z,15.30
2018-05-10T03:45:05.581Z,19.00
2018-05-10T03:47:33.785Z,12.27
2018-05-10T03:50:02.893Z,17.80
2018-05-10T03:52:31.231Z,18.93
2018-05-10T03:54:59.505Z,21.83
2018-05-10T03:57:27.737Z,20.77
2018-05-10T03:59:56.772Z,18.90
2018-05-10T04:02:36.909Z,21.07
2018-05-10T04:05:17.273Z,19.93
2018-05-10T04:07:57.821Z,19.97
2018-05-10T04:10:38.761Z,22.03
2018-05-10T04:13:06.937Z,23.30
2018-05-10T04:15:35.300Z,19.50
2018-05-10T04:18:03.533Z,24.40
2018-05-10T04:20:31.780Z,19.30
2018-05-10T04:22:59.985Z,19.60
2018-05-10T04:25:28.997Z,22.90
2018-05-10T04:27:57.950Z,22.13
2018-05-10T04:30:26.750Z,21.33
2018-05-10T04:32:55.567Z,20.13
2018-05-10T04:35:25.197Z,27.27
2018-05-10T04:37:53.423Z,18.40
2018-05-10T04:40:22.403Z,23.37
2018-05-10T04:42:50.617Z,24.50
2018-05-10T04:45:19.566Z,21.37
2018-05-10T04:47:47.810Z,19.13
2018-05-10T04:50:16.001Z,16.73
2018-05-10T04:52:44.462Z,20.80
2018-05-10T04:55:12.670Z,16.67
2018-05-10T04:57:40.940Z,22.83
2018-05-10T05:00:09.132Z,22.30
2018-05-10T05:02:37.780Z,24.03
2018-05-10T05:05:05.969Z,24.80
2018-05-10T05:07:34.233Z,17.97
2018-05-10T05:10:03.056Z,22.30
2018-05-10T05:12:31.322Z,21.27
2018-05-10T05:14:59.719Z,16.27
2018-05-10T05:17:27.913Z,26.10
2018-05-10T05:19:56.153Z,22.53
2018-05-10T05:22:24.437Z,21.87
2018-05-10T05:24:52.809Z,24.97
2018-05-10T05:27:22.549Z,20.93
2018-05-10T05:29:50.769Z,20.23
2018-05-10T05:34:56.822Z,22.37
2018-05-10T05:37:25.874Z,20.07
2018-05-10T05:39:54.707Z,21.93
2018-05-10T05:42:23.673Z,18.73
2018-05-10T05:44:51.961Z,21.47
2018-05-10T05:47:20.425Z,19.07
2018-05-10T05:49:49.067Z,24.03
2018-05-10T05:52:18.111Z,19.30
2018-05-10T05:54:46.376Z,16.70
2018-05-10T05:57:14.573Z,21.07
2018-05-10T05:59:43.562Z,21.07
2018-05-10T06:02:11.759Z,22.90
2018-05-10T06:04:40.000Z,19.67
2018-05-10T06:07:08.279Z,21.47
2018-05-10T06:09:36.752Z,23.50
2018-05-10T06:12:05.914Z,21.70
2018-05-10T06:14:34.912Z,20.23
2018-05-10T06:17:03.825Z,16.40
2018-05-10T06:19:32.849Z,22.30
2018-05-10T06:22:01.189Z,24.10
2018-05-10T06:24:30.322Z,18.50
2018-05-10T06:26:58.573Z,18.43
2018-05-10T06:29:26.822Z,19.30
2018-05-10T06:31:55.874Z,24.60
2018-05-10T06:34:24.096Z,18.80
2018-05-10T06:36:52.378Z,21.80
2018-05-10T06:39:21.358Z,17.40
2018-05-10T06:41:51.048Z,12.60
2018-05-10T06:44:19.295Z,16.67
2018-05-10T06:46:47.553Z,16.33
2018-05-10T06:49:15.907Z,14.47
2018-05-10T06:51:44.902Z,17.57
2018-05-10T06:54:13.090Z,13.37
2018-05-10T06:56:41.338Z,19.67
2018-05-10T06:59:10.920Z,12.20
2018-05-10T07:01:39.152Z,13.63
2018-05-10T07:04:08.416Z,12.20
2018-05-10T07:06:36.684Z,15.20
2018-05-10T07:09:04.944Z,13.33
2018-05-10T07:11:33.227Z,16.97
2018-05-10T07:14:01.425Z,16.53
2018-05-10T07:16:29.662Z,15.07
2018-05-10T07:18:57.973Z,12.17
2018-05-10T07:21:26.205Z,13.90
2018-05-10T07:23:55.184Z,13.67
2018-05-10T07:26:24.908Z,14.17
2018-05-10T07:28:53.883Z,14.97
2018-05-10T07:31:22.073Z,16.00
2018-05-10T07:33:50.404Z,16.57
2018-05-10T07:36:18.621Z,18.17
2018-05-10T07:38:47.643Z,9.13
2018-05-10T07:41:15.836Z,13.20
2018-05-10T07:43:44.414Z,12.00
2018-05-10T07:46:12.803Z,10.37
2018-05-10T07:48:41.022Z,9.33
2018-05-10T07:51:09.368Z,8.00
2018-05-10T07:53:37.588Z,13.63
2018-05-10T07:56:07.277Z,10.40
2018-05-10T07:58:35.505Z,11.27
2018-05-10T08:01:04.044Z,12.23
2018-05-10T08:03:32.291Z,11.60
2018-05-10T08:06:00.476Z,11.03
2018-05-10T08:08:29.150Z,13.37
2018-05-10T08:10:57.410Z,9.87
2018-05-10T08:13:26.388Z,10.53
2018-05-10T08:15:54.713Z,10.70
2018-05-10T08:18:22.899Z,9.27
2018-05-10T08:20:51.717Z,9.97
2018-05-10T08:23:21.447Z,9.87
2018-05-10T08:25:50.384Z,7.67
2018-05-10T08:28:18.655Z,10.80
2018-05-10T08:30:46.935Z,8.67
2018-05-10T08:33:15.215Z,12.57
2018-05-10T08:35:43.619Z,10.20
2018-05-10T08:38:11.861Z,9.30
2018-05-10T08:40:40.069Z,9.27
2018-05-10T08:43:08.433Z,12.17
2018-05-10T08:45:36.695Z,8.97
2018-05-10T08:48:04.875Z,10.63
2018-05-10T08:50:33.204Z,9.00
2018-05-10T08:53:02.220Z,10.17
2018-05-10T08:55:31.221Z,9.80
2018-05-10T08:58:00.273Z,10.07
2018-05-10T09:00:28.645Z,8.00
2018-05-10T09:02:56.897Z,9.80
2018-05-10T09:05:25.121Z,9.43
2018-05-10T09:07:53.325Z,10.03
2018-05-10T09:10:22.471Z,10.33
2018-05-10T09:12:50.744Z,9.87
2018-05-10T09:15:18.974Z,8.53
2018-05-10T09:17:47.944Z,10.47
2018-05-10T09:20:16.379Z,13.23
2018-05-10T09:22:44.530Z,13.67
2018-05-10T09:25:12.798Z,12.53
2018-05-10T09:27:41.839Z,12.20
2018-05-10T09:30:10.130Z,11.10
2018-05-10T09:32:38.396Z,10.30
2018-05-10T09:35:06.705Z,8.70
2018-05-10T09:37:35.042Z,10.67
2018-05-10T09:40:03.293Z,11.37
2018-05-10T09:42:32.245Z,12.17
2018-05-10T09:45:00.465Z,13.90
2018-05-10T09:47:29.588Z,11.13
2018-05-10T09:49:57.813Z,8.90
2018-05-10T09:52:26.875Z,8.80
2018-05-10T09:54:55.097Z,10.97
2018-05-10T09:57:24.157Z,12.80
2018-05-10T09:59:52.416Z,11.07
2018-05-10T10:02:20.806Z,9.87
2018-05-10T10:04:49.590Z,11.73
2018-05-10T10:07:17.805Z,11.57
2018-05-10T10:09:47.594Z,9.03
2018-05-10T10:12:15.902Z,9.93
2018-05-10T10:14:45.051Z,10.73
2018-05-10T10:17:13.245Z,9.57
2018-05-10T10:19:41.430Z,10.77
2018-05-10T10:22:09.725Z,6.93
2018-05-10T10:24:39.369Z,9.63
2018-05-10T10:27:07.636Z,9.20
2018-05-10T10:29:36.612Z,6.33
2018-05-10T10:32:05.612Z,8.23
2018-05-10T10:34:33.985Z,6.43
2018-05-10T10:37:03.149Z,9.67
2018-05-10T10:39:31.427Z,8.57
2018-05-10T10:42:00.569Z,7.67
2018-05-10T10:44:29.550Z,8.27
2018-05-10T10:46:57.770Z,6.80
2018-05-10T10:49:27.687Z,8.67
2018-05-10T10:51:56.626Z,7.07
2018-05-10T10:54:24.884Z,7.57
2018-05-10T10:56:53.098Z,7.83
2018-05-10T10:59:22.154Z,7.77
2018-05-10T11:01:50.421Z,8.00
2018-05-10T11:04:18.712Z,9.70
2018-05-10T11:06:47.104Z,7.50
2018-05-10T11:09:16.472Z,4.60
2018-05-10T11:11:44.678Z,5.50
2018-05-10T11:14:13.629Z,5.67
2018-05-10T11:16:42.676Z,6.83
2018-05-10T11:19:11.756Z,7.80
2018-05-10T11:21:40.026Z,4.97
2018-05-10T11:24:08.245Z,8.47
2018-05-10T11:26:36.443Z,6.83
2018-05-10T11:29:05.430Z,8.93
2018-05-10T11:31:35.197Z,7.23
2018-05-10T11:34:03.447Z,7.70
2018-05-10T11:36:31.727Z,10.57
2018-05-10T11:39:00.123Z,6.17
2018-05-10T11:41:29.135Z,7.13
2018-05-10T11:43:57.383Z,5.07
2018-05-10T11:46:25.615Z,6.30
2018-05-10T11:48:54.115Z,3.87
2018-05-10T11:51:22.376Z,5.10
2018-05-10T11:53:50.643Z,7.33
2018-05-10T11:56:19.704Z,7.80
2018-05-10T11:58:48.190Z,7.00
2018-05-10T12:01:16.393Z,11.17
2018-05-10T12:03:44.621Z,4.87
2018-05-10T12:06:13.637Z,5.40
2018-05-10T12:08:41.839Z,6.97
2018-05-10T12:11:10.109Z,6.57
2018-05-10T12:13:39.651Z,5.37
2018-05-10T12:16:08.653Z,6.67
2018-05-10T12:18:36.980Z,7.57
2018-05-10T12:21:05.197Z,4.27
2018-05-10T12:23:33.421Z,8.00
2018-05-10T12:26:03.203Z,7.90
2018-05-10T12:28:32.259Z,5.97
2018-05-10T12:31:00.503Z,5.93
2018-05-10T12:33:28.796Z,8.60
2018-05-10T12:35:57.020Z,7.23
2018-05-10T12:38:26.853Z,6.50
2018-05-10T12:40:55.904Z,5.30
2018-05-10T12:43:24.371Z,8.67
2018-05-10T12:45:52.563Z,4.63
2018-05-10T12:48:29.164Z,5.70
2018-05-10T12:50:58.323Z,9.87
2018-05-10T12:53:29.388Z,9.90
2018-05-10T12:56:01.153Z,5.03
2018-05-10T12:58:30.127Z,7.47
2018-05-10T13:00:58.390Z,8.37
2018-05-10T13:03:27.500Z,9.77
2018-05-10T13:05:55.718Z,6.20
2018-05-10T13:08:23.932Z,7.97
2018-05-10T13:10:52.208Z,9.33
2018-05-10T13:13:20.591Z,11.30
2018-05-10T13:15:49.422Z,5.17
2018-05-10T13:18:17.627Z,7.23
2018-05-10T13:20:46.568Z,9.97
2018-05-10T13:23:14.767Z,9.87
2018-05-10T13:25:44.584Z,7.80
2018-05-10T13:28:13.035Z,6.73
2018-05-10T13:30:41.213Z,8.57
2018-05-10T13:33:09.492Z,8.00
2018-05-10T13:35:38.965Z,8.10
2018-05-10T13:38:07.269Z,8.03
2018-05-10T13:40:35.458Z,9.03
2018-05-10T13:43:03.646Z,8.30
2018-05-10T13:45:31.918Z,8.23
2018-05-10T13:48:00.191Z,7.57
2018-05-10T13:50:28.423Z,7.37
2018-05-10T13:52:56.752Z,12.33
2018-05-10T13:55:24.962Z,12.57
2018-05-10T13:57:54.114Z,9.60
2018-05-10T14:00:22.327Z,9.97
2018-05-10T14:02:50.773Z,11.40
2018-05-10T14:05:18.976Z,10.60
2018-05-10T14:07:47.253Z,9.10
2018-05-10T14:10:15.499Z,9.03
2018-05-10T14:12:43.709Z,9.60
2018-05-10T14:15:12.010Z,9.77
2018-05-10T14:17:40.381Z,9.90
2018-05-10T14:20:08.637Z,10.83
2018-05-10T14:22:37.001Z,7.77
2018-05-10T14:25:05.392Z,9.30
2018-05-10T14:27:34.578Z,9.17
2018-05-10T14:30:03.108Z,9.33
2018-05-10T14:32:32.456Z,8.63
2018-05-10T14:35:00.646Z,7.83
2018-05-10T14:37:28.944Z,9.93
2018-05-10T14:39:58.016Z,8.73
2018-05-10T14:42:26.296Z,8.57
2018-05-10T14:44:54.503Z,5.63
2018-05-10T14:47:22.731Z,7.63
2018-05-10T14:49:50.953Z,7.83
2018-05-10T14:52:19.877Z,9.03
2018-05-10T14:54:48.912Z,7.80
2018-05-10T14:57:17.097Z,8.20
2018-05-10T14:59:45.562Z,7.50
2018-05-10T15:02:13.807Z,6.90
2018-05-10T15:04:42.873Z,10.00
2018-05-10T15:07:11.898Z,9.97
2018-05-10T15:09:40.241Z,9.00
2018-05-10T15:12:09.303Z,9.67
2018-05-10T15:14:37.625Z,10.80
2018-05-10T15:17:06.651Z,10.50
2018-05-10T15:19:35.598Z,10.00
2018-05-10T15:22:03.817Z,9.83
2018-05-10T15:24:32.970Z,10.47
2018-05-10T15:27:01.234Z,9.03
2018-05-10T15:29:29.455Z,8.73
2018-05-10T15:31:58.481Z,9.13
2018-05-10T15:34:27.448Z,9.77
2018-05-10T15:36:56.713Z,9.03
2018-05-10T15:39:24.983Z,8.17
2018-05-10T15:41:53.179Z,10.40
2018-05-10T15:44:21.389Z,9.17
2018-05-10T15:46:49.633Z,10.73
2018-05-10T15:49:18.006Z,11.53
2018-05-10T15:51:46.258Z,7.80
2018-05-10T15:54:15.266Z,8.77
2018-05-10T15:56:43.649Z,9.07
2018-05-10T15:59:12.630Z,8.10
2018-05-10T16:01:41.861Z,8.30
2018-05-10T16:04:10.224Z,7.83
2018-05-10T16:06:38.545Z,6.80
2018-05-10T16:09:06.749Z,7.93
2018-05-10T16:11:35.748Z,7.40
2018-05-10T16:14:03.966Z,7.60
2018-05-10T16:16:32.257Z,6.90
2018-05-10T16:19:00.512Z,8.60
2018-05-10T16:21:28.783Z,8.43
2018-05-10T16:23:57.058Z,10.23
2018-05-10T16:26:25.350Z,9.23
2018-05-10T16:28:53.561Z,8.07
2018-05-10T16:31:23.292Z,8.17
2018-05-10T16:33:53.473Z,13.73
2018-05-10T16:36:22.477Z,9.70
2018-05-10T16:38:52.396Z,11.53
2018-05-10T16:41:20.635Z,11.63
2018-05-10T16:43:48.843Z,12.60
2018-05-10T16:46:17.141Z,10.27
2018-05-10T16:48:46.111Z,11.97
2018-05-10T16:51:14.378Z,10.77
2018-05-10T16:53:42.603Z,15.47
2018-05-10T16:56:10.933Z,10.97
2018-05-10T16:58:39.213Z,12.30
2018-05-10T17:01:08.033Z,12.67
2018-05-10T17:03:37.147Z,13.00
2018-05-10T17:06:05.416Z,11.50
2018-05-10T17:08:33.739Z,11.43
2018-05-10T17:11:01.975Z,10.63
2018-05-10T17:13:30.950Z,9.23
2018-05-10T17:16:00.012Z,13.40
2018-05-10T17:18:29.158Z,15.00
2018-05-10T17:20:58.369Z,13.63
2018-05-10T17:23:27.387Z,9.43
2018-05-10T17:25:55.629Z,10.07
2018-05-10T17:28:24.649Z,11.87
2018-05-10T17:30:52.903Z,12.37
2018-05-10T17:33:21.179Z,9.67
2018-05-10T17:35:49.389Z,15.50
2018-05-10T17:38:17.625Z,10.33
2018-05-10T17:40:47.500Z,17.90
2018-05-10T17:43:15.752Z,12.67
2018-05-10T17:45:44.014Z,12.83
2018-05-10T17:48:12.344Z,15.50
2018-05-10T17:50:41.430Z,13.00
2018-05-10T17:53:10.450Z,12.87
2018-05-10T17:55:38.672Z,11.33
2018-05-10T17:58:07.796Z,13.63
2018-05-10T18:00:36.091Z,12.63
2018-05-10T18:03:04.352Z,17.90
2018-05-10T18:05:32.697Z,12.30
2018-05-10T18:08:00.926Z,14.33
2018-05-10T18:10:30.118Z,11.50
2018-05-10T18:12:58.391Z,16.10
2018-05-10T18:15:26.604Z,17.23
2018-05-10T18:17:54.904Z,13.67
2018-05-10T18:20:23.902Z,11.53
2018-05-10T18:22:52.122Z,12.40
2018-05-10T18:25:20.350Z,10.87
2018-05-10T18:27:48.665Z,13.30
2018-05-10T18:30:16.956Z,13.73
2018-05-10T18:32:45.222Z,16.63
2018-05-10T18:35:13.507Z,15.50
2018-05-10T18:37:42.606Z,14.70
2018-05-10T18:40:10.861Z,15.60
2018-05-10T18:42:39.153Z,16.13
2018-05-10T18:45:07.356Z,17.80
2018-05-10T18:47:36.360Z,12.67
2018-05-10T18:50:04.716Z,16.03
2018-05-10T18:52:33.806Z,16.70
2018-05-10T18:55:02.120Z,13.43
2018-05-10T18:57:31.053Z,15.30
2018-05-10T18:59:59.291Z,15.43
2018-05-10T19:02:28.297Z,11.33
2018-05-10T19:04:56.504Z,15.93
2018-05-10T19:07:24.740Z,15.87
2018-05-10T19:09:53.778Z,18.23
2018-05-10T19:12:22.056Z,13.60
2018-05-10T19:14:50.336Z,16.90
2018-05-10T19:17:18.561Z,15.87
2018-05-10T19:19:47.563Z,15.60
2018-05-10T19:22:15.999Z,14.33
2018-05-10T19:24:44.221Z,13.77
2018-05-10T19:27:13.383Z,16.60
2018-05-10T19:29:41.681Z,15.67
2018-05-10T19:32:10.710Z,18.07
2018-05-10T19:34:39.800Z,16.83
2018-05-10T19:37:08.848Z,13.60
2018-05-10T19:39:39.595Z,16.90
2018-05-10T19:42:07.766Z,15.33
2018-05-10T19:44:36.765Z,14.70
2018-05-10T19:47:05.045Z,15.70
2018-05-10T19:49:33.282Z,13.97
2018-05-10T19:52:02.418Z,15.53
2018-05-10T19:54:32.160Z,16.10
2018-05-10T19:57:00.538Z,11.80
2018-05-10T19:59:29.508Z,21.80
2018-05-10T20:01:57.888Z,15.77
2018-05-10T20:04:26.148Z,14.40
2018-05-10T20:06:54.353Z,19.90
2018-05-10T20:09:22.719Z,13.03
2018-05-10T20:11:50.944Z,12.70
2018-05-10T20:14:19.222Z,11.13
2018-05-10T20:16:48.244Z,12.87
2018-05-10T20:19:16.500Z,17.37
2018-05-10T20:21:44.853Z,15.93
2018-05-10T20:24:13.203Z,13.50
2018-05-10T20:26:42.219Z,17.70
2018-05-10T20:29:11.609Z,11.77
2018-05-10T20:31:39.806Z,15.00
2018-05-10T20:34:08.840Z,8.97
2018-05-10T20:36:37.048Z,16.17
2018-05-10T20:39:06.636Z,16.67
2018-05-10T20:41:36.663Z,13.27
2018-05-10T20:44:05.073Z,17.00
2018-05-10T20:46:33.296Z,15.23
2018-05-10T20:49:02.384Z,16.83
2018-05-10T20:51:31.399Z,16.47
2018-05-10T20:53:59.681Z,16.60
2018-05-10T20:56:27.986Z,14.30
2018-05-10T20:58:56.241Z,11.83
2018-05-10T21:01:24.425Z,14.07
2018-05-10T21:03:52.645Z,17.57
2018-05-10T21:06:20.995Z,12.43
2018-05-10T21:08:49.258Z,17.40
2018-05-10T21:11:17.633Z,17.00
2018-05-10T21:13:45.843Z,15.93
2018-05-10T21:16:14.071Z,17.60
2018-05-10T21:18:43.820Z,15.60
2018-05-10T21:21:12.056Z,16.17
2018-05-10T21:23:40.450Z,17.80
2018-05-10T21:26:08.765Z,19.97
2018-05-10T21:28:36.983Z,13.10
2018-05-10T21:31:05.434Z,16.00
2018-05-10T21:33:33.997Z,11.63
2018-05-10T21:36:02.338Z,12.67
2018-05-10T21:38:31.311Z,18.27
2018-05-10T21:40:59.496Z,10.40
2018-05-10T21:43:28.483Z,16.23
2018-05-10T21:45:56.665Z,17.40
2018-05-10T21:48:24.926Z,15.33
2018-05-10T21:50:53.192Z,17.47
2018-05-10T21:53:21.430Z,15.23
2018-05-10T21:55:49.653Z,13.60
2018-05-10T21:58:17.970Z,12.87
2018-05-10T22:00:46.944Z,13.90
2018-05-10T22:03:15.936Z,11.90
2018-05-10T22:05:44.147Z,13.83
2018-05-10T22:08:12.365Z,15.37
2018-05-10T22:10:40.594Z,20.40
2018-05-10T22:13:09.568Z,14.00
2018-05-10T22:15:38.601Z,16.43
2018-05-10T22:18:07.744Z,15.80
2018-05-10T22:20:35.923Z,15.17
2018-05-10T22:23:04.141Z,15.80
2018-05-10T22:25:32.385Z,23.00
2018-05-10T22:28:01.435Z,13.77
2018-05-10T22:30:29.717Z,16.37
2018-05-10T22:32:58.276Z,15.30
2018-05-10T22:35:26.589Z,14.20
2018-05-10T22:37:54.794Z,12.43
2018-05-10T22:40:25.521Z,14.60
2018-05-10T22:42:53.707Z,17.20
2018-05-10T22:45:22.713Z,15.60
2018-05-10T22:47:51.702Z,20.60
2018-05-10T22:50:20.852Z,22.33
2018-05-10T22:52:49.092Z,22.00
2018-05-10T22:55:17.292Z,19.27
2018-05-10T22:57:45.597Z,20.77
2018-05-10T23:00:13.854Z,24.77
2018-05-10T23:02:42.130Z,22.33
2018-05-10T23:05:10.380Z,24.43
2018-05-10T23:07:38.604Z,19.77
2018-05-10T23:10:07.079Z,21.80
2018-05-10T23:12:35.248Z,19.87
2018-05-10T23:15:03.524Z,18.37
2018-05-10T23:17:31.748Z,28.37
2018-05-10T23:20:00.850Z,23.70
2018-05-10T23:22:29.386Z,23.73
2018-05-10T23:24:57.595Z,19.97
2018-05-10T23:27:25.809Z,21.00
2018-05-10T23:29:54.832Z,19.50
2018-05-10T23:32:23.134Z,23.53
2018-05-10T23:34:51.372Z,22.20
2018-05-10T23:37:19.601Z,20.47
2018-05-10T23:39:47.880Z,22.93
2018-05-10T23:42:16.126Z,21.50
2018-05-10T23:44:44.353Z,24.80
2018-05-10T23:47:13.495Z,23.03
2018-05-10T23:49:41.742Z,21.60
2018-05-10T23:52:12.396Z,21.83
2018-05-10T23:54:41.504Z,21.13
2018-05-10T23:57:09.784Z,22.30
2018-05-10T23:59:37.982Z,19.47
